.
WxDataArchive / Data Records for 2016-04-19
2016-04-18 April 2016 2016-04-20

Data Records for Tuesday, 19 April 2016

Time	Temp	Chill	HIndex	Humid	Dewpt	 Wind 	HiWind	WindDir	Rain 	Barom
-----	----	-----	------	-----	-----	------	------	-------	-----	-----
00:00	59.9	59.9	59.9	58	45.1	0	0	---	0.00	30.156 
00:05	59.6	59.6	59.6	60	45.7	0	0	---	0.00	30.156 
00:10	59.3	59.3	59.3	60	45.4	0	0	---	0.00	30.156 
00:15	59.0	59.0	59.0	61	45.6	0	0	---	0.00	30.154 
00:20	58.9	58.9	58.9	62	45.9	0	0	---	0.00	30.154 
00:25	58.9	58.9	58.9	61	45.5	0	0	---	0.00	30.154 
00:30	58.9	58.9	58.9	62	45.9	0	0	---	0.00	30.149 
00:35	58.7	58.7	58.7	61	45.3	0	0	---	0.00	30.149 
00:40	58.6	58.6	58.6	62	45.6	0	0	---	0.00	30.149 
00:45	58.4	58.4	58.4	62	45.4	0	0	---	0.00	30.148 
00:50	58.4	58.4	58.4	62	45.4	0	0	---	0.00	30.148 
00:55	58.3	58.3	58.3	62	45.3	0	0	---	0.00	30.148 
01:00	58.1	58.1	58.1	62	45.1	0	0	---	0.00	30.147 
01:05	58.0	58.0	58.0	63	45.5	0	0	---	0.00	30.147 
01:10	57.8	57.8	57.8	64	45.7	0	0	---	0.00	30.147 
01:15	57.6	57.6	57.6	64	45.5	0	0	---	0.00	30.147 
01:20	57.5	57.5	57.5	64	45.4	0	0	---	0.00	30.147 
01:25	57.3	57.3	57.3	65	45.6	0	0	---	0.00	30.147 
01:30	57.2	57.2	57.2	64	45.1	0	0	---	0.00	30.144 
01:35	57.0	57.0	57.0	64	44.9	0	0	---	0.00	30.144 
01:40	56.9	56.9	56.9	65	45.3	0	0	---	0.00	30.144 
01:45	56.9	56.9	56.9	66	45.7	0	0	---	0.00	30.143 
01:50	57.0	57.0	57.0	65	45.4	0	0	---	0.00	30.143 
01:55	57.0	57.0	57.0	65	45.4	0	0	---	0.00	30.143 
02:00	56.9	56.9	56.9	65	45.3	0	0	---	0.00	30.136 
02:05	56.9	56.9	56.9	66	45.7	0	0	---	0.00	30.136 
02:10	56.9	56.9	56.9	67	46.1	0	0	---	0.00	30.136 
02:15	56.7	56.7	56.7	67	45.9	0	0	---	0.00	30.134 
02:20	56.7	56.7	56.7	68	46.3	0	0	---	0.00	30.134 
02:25	56.9	56.9	56.9	68	46.4	0	0	---	0.00	30.134 
02:30	56.9	56.9	56.9	69	46.8	0	0	---	0.00	30.136 
02:35	57.0	57.0	57.0	68	46.5	0	0	---	0.00	30.136 
02:40	57.0	57.0	57.0	68	46.5	0	0	---	0.00	30.136 
02:45	56.9	56.9	56.9	69	46.8	0	1	292	0.00	30.135 
02:50	57.2	57.2	57.2	67	46.3	0	0	---	0.00	30.135 
02:55	57.3	57.3	57.3	67	46.4	0	0	---	0.00	30.135 
03:00	57.3	57.3	57.3	67	46.4	0	1	292	0.00	30.130 
03:05	57.3	57.3	57.3	67	46.4	0	2	292	0.00	30.130 
03:10	57.5	57.5	57.5	65	45.8	0	1	292	0.00	30.130 
03:15	57.5	57.5	57.5	65	45.8	0	1	292	0.00	30.126 
03:20	57.5	57.5	57.5	65	45.8	0	0	---	0.00	30.126 
03:25	57.5	57.5	57.5	65	45.8	0	1	292	0.00	30.126 
03:30	57.6	57.6	57.6	65	45.9	0	0	---	0.00	30.127 
03:35	57.5	57.5	57.5	65	45.8	0	1	292	0.00	30.127 
03:40	57.3	57.3	57.3	65	45.6	0	0	---	0.00	30.127 
03:45	57.3	57.3	57.3	66	46.0	0	0	---	0.00	30.129 
03:50	57.2	57.2	57.2	67	46.3	0	0	---	0.00	30.129 
03:55	57.2	57.2	57.2	68	46.7	0	0	---	0.00	30.129 
04:00	56.9	56.9	56.9	68	46.4	0	0	---	0.00	30.127 
04:05	56.7	56.7	56.7	69	46.6	0	0	---	0.00	30.127 
04:10	56.6	56.6	56.6	69	46.5	0	0	---	0.00	30.127 
04:15	56.6	56.6	56.6	70	46.9	0	0	---	0.00	30.131 
04:20	56.5	56.5	56.5	71	47.2	0	0	---	0.00	30.131 
04:25	56.2	56.2	56.2	71	46.9	0	0	---	0.00	30.131 
04:30	56.0	56.0	56.0	72	47.1	0	0	---	0.00	30.134 
04:35	55.9	55.9	55.9	72	47.0	0	0	---	0.00	30.134 
04:40	55.7	55.7	55.7	73	47.2	0	0	---	0.00	30.134 
04:45	55.4	55.4	55.4	73	46.9	0	0	---	0.00	30.135 
04:50	55.3	55.3	55.3	73	46.8	0	0	---	0.00	30.135 
04:55	55.1	55.1	55.1	73	46.6	0	0	---	0.00	30.135 
05:00	55.0	55.0	55.0	74	46.9	0	0	---	0.00	30.135 
05:05	54.8	54.8	54.8	74	46.7	0	0	---	0.00	30.135 
05:10	54.7	54.7	54.7	74	46.6	0	0	---	0.00	30.135 
05:15	54.5	54.5	54.5	74	46.4	0	0	---	0.00	30.135 
05:20	54.4	54.4	54.4	75	46.6	0	0	---	0.00	30.135 
05:25	54.1	54.1	54.1	75	46.4	0	0	---	0.00	30.135 
05:30	53.9	53.9	53.9	75	46.2	0	0	---	0.00	30.142 
05:35	53.8	53.8	53.8	76	46.4	0	0	---	0.00	30.142 
05:40	53.8	53.8	53.8	76	46.4	0	0	---	0.00	30.142 
05:45	53.8	53.8	53.8	76	46.4	0	0	---	0.00	30.143 
05:50	54.5	54.5	54.5	70	44.9	0	2	292	0.00	30.143 
05:55	56.0	56.0	56.0	66	44.8	0	2	292	0.00	30.143 
06:00	57.3	57.3	57.3	63	44.8	1	3	292	0.00	30.146 
06:05	58.1	58.1	58.1	61	44.7	0	2	292	0.00	30.146 
06:10	58.6	58.6	58.6	61	45.2	1	6	112	0.00	30.146 
06:15	58.6	58.6	58.6	61	45.2	0	3	112	0.00	30.149 
06:20	58.4	58.4	58.4	62	45.4	1	6	112	0.00	30.149 
06:25	58.1	58.1	58.1	63	45.6	1	4	112	0.00	30.149 
06:30	57.8	57.8	57.8	64	45.7	1	4	112	0.00	30.156 
06:35	57.5	57.5	57.5	64	45.4	0	3	112	0.00	30.156 
06:40	57.2	57.2	57.2	65	45.5	1	3	112	0.00	30.156 
06:45	56.9	56.9	56.9	66	45.7	1	3	112	0.00	30.160 
06:50	56.6	56.6	56.6	66	45.4	1	4	112	0.00	30.160 
06:55	56.5	56.5	56.5	67	45.7	0	2	112	0.00	30.160 
07:00	56.3	56.3	56.3	67	45.5	1	3	112	0.00	30.166 
07:05	56.0	56.0	56.0	68	45.6	0	3	112	0.00	30.166 
07:10	55.7	55.7	55.7	69	45.7	0	2	112	0.00	30.166 
07:15	55.6	55.6	55.6	69	45.6	0	2	112	0.00	30.169 
07:20	55.3	55.3	55.3	70	45.7	0	2	112	0.00	30.169 
07:25	55.3	55.3	55.3	71	46.1	0	3	112	0.00	30.169 
07:30	55.1	55.1	55.1	71	45.9	1	3	112	0.00	30.176 
07:35	55.1	55.1	55.1	71	45.9	0	1	112	0.00	30.176 
07:40	55.1	55.1	55.1	72	46.2	0	1	112	0.00	30.176 
07:45	55.1	55.1	55.1	72	46.2	0	1	112	0.00	30.183 
07:50	55.3	55.3	55.3	72	46.4	0	1	112	0.00	30.183 
07:55	55.4	55.4	55.4	72	46.5	0	2	112	0.00	30.183 
08:00	55.6	55.6	55.6	72	46.7	1	2	112	0.00	30.183 
08:05	55.7	55.7	55.7	71	46.4	1	3	112	0.00	30.183 
08:10	55.9	55.9	55.9	71	46.6	1	3	112	0.00	30.183 
08:15	55.9	55.9	55.9	71	46.6	1	3	112	0.00	30.191 
08:20	56.0	56.0	56.0	71	46.7	0	2	112	0.00	30.191 
08:25	56.0	56.0	56.0	71	46.7	1	4	112	0.00	30.191 
08:30	56.2	56.2	56.2	71	46.9	2	4	112	0.00	30.193 
08:35	56.2	56.2	56.2	71	46.9	1	3	112	0.00	30.193 
08:40	56.3	56.3	56.3	70	46.6	2	4	112	0.00	30.193 
08:45	56.3	56.3	56.3	70	46.6	2	5	112	0.00	30.198 
08:50	56.5	56.5	56.5	70	46.8	2	5	112	0.00	30.198 
08:55	56.3	56.3	56.3	70	46.6	2	5	112	0.00	30.198 
09:00	56.3	56.3	56.3	70	46.6	2	6	112	0.00	30.200 
09:05	56.3	56.3	56.3	70	46.6	2	9	112	0.00	30.200 
09:10	56.2	56.2	56.2	70	46.5	2	5	112	0.00	30.200 
09:15	56.2	56.2	56.2	70	46.5	2	5	112	0.00	30.209 
09:20	56.3	56.3	56.3	71	47.0	2	5	90	0.00	30.209 
09:25	56.3	56.3	56.3	71	47.0	2	6	90	0.00	30.209 
09:30	56.3	56.3	56.3	71	47.0	3	6	68	0.00	30.212 
09:35	56.5	56.5	56.5	70	46.8	3	6	90	0.00	30.212 
09:40	56.3	56.3	56.3	70	46.6	3	6	90	0.00	30.212 
09:45	56.6	56.6	56.6	71	47.3	1	4	112	0.00	30.212 
09:50	56.7	56.7	56.7	70	47.0	3	5	112	0.00	30.212 
09:55	56.9	56.9	56.9	70	47.2	2	5	112	0.00	30.212 
10:00	57.0	57.0	57.0	70	47.3	2	6	112	0.00	30.211 
10:05	57.3	57.3	57.3	70	47.6	1	4	112	0.00	30.211 
10:10	57.6	57.6	57.6	68	47.1	3	7	90	0.00	30.211 
10:15	58.0	58.0	58.0	68	47.5	2	6	112	0.00	30.215 
10:20	58.3	58.3	58.3	68	47.8	1	4	90	0.00	30.215 
10:25	58.9	58.9	58.9	66	47.6	1	6	112	0.00	30.215 
10:30	59.2	59.2	59.2	66	47.8	2	4	90	0.00	30.213 
10:35	59.2	59.2	59.2	66	47.8	2	5	68	0.00	30.213 
10:40	59.3	59.3	59.3	65	47.5	2	5	90	0.00	30.213 
10:45	59.3	59.3	59.3	65	47.5	2	9	112	0.00	30.219 
10:50	59.8	59.8	59.8	65	48.0	2	5	112	0.00	30.219 
10:55	60.2	60.2	60.2	64	48.0	2	6	68	0.00	30.219 
11:00	60.2	60.2	60.2	62	47.1	2	10	112	0.00	30.222 
11:05	60.2	60.2	60.2	63	47.6	1	7	112	0.00	30.222 
11:10	60.1	60.1	60.1	62	47.0	2	5	112	0.00	30.222 
11:15	59.6	59.6	59.6	62	46.6	4	7	90	0.00	30.221 
11:20	59.5	59.5	59.5	64	47.3	3	7	112	0.00	30.221 
11:25	59.8	59.8	59.8	63	47.2	1	4	68	0.00	30.221 
11:30	59.9	59.9	59.9	63	47.3	3	7	112	0.00	30.222 
11:35	60.1	60.1	60.1	62	47.0	2	6	112	0.00	30.222 
11:40	60.7	60.7	60.7	62	47.6	2	6	90	0.00	30.222 
11:45	61.2	61.2	61.2	61	47.6	1	9	90	0.00	30.224 
11:50	61.6	61.6	61.6	61	48.0	1	6	90	0.00	30.224 
11:55	62.0	62.0	62.0	59	47.5	3	7	90	0.00	30.224 
12:00	62.0	62.0	62.0	60	48.0	2	5	22	0.00	30.223 
12:05	62.3	62.3	62.3	59	47.8	2	5	90	0.00	30.223 
12:10	62.4	62.4	62.4	59	47.9	3	11	90	0.00	30.223 
12:15	62.7	62.7	62.7	58	47.7	2	7	112	0.00	30.225 
12:20	62.9	62.9	62.9	58	47.9	2	6	90	0.00	30.225 
12:25	63.1	63.1	63.1	58	48.1	1	5	90	0.00	30.225 
12:30	63.7	63.7	63.7	59	49.1	1	3	45	0.00	30.223 
12:35	63.9	63.9	63.9	58	48.8	3	10	112	0.00	30.223 
12:40	64.2	64.2	64.2	58	49.1	3	7	112	0.00	30.223 
12:45	64.3	64.3	64.3	58	49.2	3	7	90	0.00	30.220 
12:50	64.3	64.3	64.3	57	48.7	4	10	112	0.00	30.220 
12:55	64.2	64.2	64.2	55	47.7	3	9	90	0.00	30.220 
13:00	64.3	64.3	64.3	56	48.3	3	8	112	0.00	30.214 
13:05	64.7	64.7	64.7	58	49.6	3	9	90	0.00	30.214 
13:10	65.2	65.2	65.2	55	48.6	2	8	90	0.00	30.214 
13:15	65.3	65.3	65.3	56	49.2	3	9	90	0.00	30.210 
13:20	65.5	65.5	65.5	55	48.9	3	7	68	0.00	30.210 
13:25	66.1	66.1	66.1	55	49.5	3	5	112	0.00	30.210 
13:30	66.3	66.3	66.3	54	49.1	4	9	112	0.00	30.208 
13:35	66.3	66.3	66.3	56	50.1	2	7	112	0.00	30.208 
13:40	66.4	66.4	66.4	55	49.7	2	6	68	0.00	30.208 
13:45	66.3	66.3	66.3	54	49.1	3	7	112	0.00	30.202 
13:50	66.0	66.0	66.0	56	49.8	3	7	90	0.00	30.202 
13:55	65.6	65.6	65.6	54	48.5	4	9	112	0.00	30.202 
14:00	66.0	66.0	66.0	55	49.4	3	9	90	0.00	30.197 
14:05	66.4	66.4	66.4	54	49.2	3	10	112	0.00	30.197 
14:10	66.9	66.9	66.9	54	49.7	3	6	90	0.00	30.197 
14:15	67.3	67.3	67.3	53	49.6	4	9	112	0.00	30.191 
14:20	67.1	67.1	67.1	52	48.9	4	8	112	0.00	30.191 
14:25	67.3	67.3	67.3	53	49.6	1	9	22	0.00	30.191 
14:30	67.1	67.1	67.1	53	49.4	2	5	22	0.00	30.189 
14:35	67.4	67.4	67.4	53	49.7	2	10	22	0.00	30.189 
14:40	67.6	67.6	67.6	53	49.9	2	7	22	0.00	30.189 
14:45	67.8	67.8	67.8	52	49.5	2	7	112	0.00	30.188 
14:50	68.1	68.1	68.1	50	48.7	2	6	90	0.00	30.188 
14:55	68.4	68.4	68.4	51	49.6	2	9	90	0.00	30.188 
15:00	68.4	68.4	68.4	54	51.1	4	9	112	0.00	30.188 
15:05	68.4	68.4	68.4	51	49.6	3	9	90	0.00	30.188 
15:10	68.6	68.6	68.6	51	49.7	2	9	90	0.00	30.188 
15:15	68.6	68.6	68.6	50	49.2	4	9	90	0.00	30.187 
15:20	68.4	68.4	68.4	51	49.6	4	9	90	0.00	30.187 
15:25	68.6	68.6	68.6	52	50.3	3	9	112	0.00	30.187 
15:30	68.8	68.8	68.8	49	48.8	4	10	112	0.00	30.185 
15:35	68.4	68.4	68.4	50	49.0	4	11	90	0.00	30.185 
15:40	67.4	67.4	67.4	51	48.6	5	13	112	0.00	30.185 
15:45	66.9	66.9	66.9	53	49.2	2	8	112	0.00	30.184 
15:50	66.8	66.8	66.8	51	48.1	4	9	90	0.00	30.184 
15:55	66.4	66.4	66.4	52	48.2	4	12	112	0.00	30.184 
16:00	66.6	66.6	66.6	51	47.9	4	10	90	0.00	30.185 
16:05	66.6	66.6	66.6	51	47.9	5	11	112	0.00	30.185 
16:10	66.4	66.4	66.4	51	47.7	5	12	112	0.00	30.185 
16:15	66.8	66.8	66.8	51	48.1	4	10	90	0.00	30.181 
16:20	66.8	66.8	66.8	51	48.1	5	11	112	0.00	30.181 
16:25	66.6	66.6	66.6	51	47.9	4	12	90	0.00	30.181 
16:30	66.3	66.3	66.3	50	47.1	5	10	90	0.00	30.186 
16:35	65.8	65.8	65.8	50	46.6	6	12	90	0.00	30.186 
16:40	65.5	65.5	65.5	52	47.4	5	11	90	0.00	30.186 
16:45	65.5	65.5	65.5	50	46.4	5	11	112	0.00	30.182 
16:50	65.5	65.5	65.5	50	46.4	3	6	90	0.00	30.182 
16:55	65.3	65.3	65.3	51	46.7	5	10	90	0.00	30.182 
17:00	64.8	64.8	64.8	52	46.8	5	12	112	0.00	30.181 
17:05	64.7	64.7	64.7	52	46.7	5	11	90	0.00	30.181 
17:10	64.5	64.5	64.5	52	46.5	5	10	90	0.00	30.181 
17:15	64.3	64.3	64.3	52	46.3	4	11	112	0.00	30.180 
17:20	64.0	64.0	64.0	50	45.0	3	10	112	0.00	30.180 
17:25	63.7	63.7	63.7	52	45.7	3	10	90	0.00	30.180 
17:30	63.5	63.5	63.5	52	45.6	2	8	112	0.00	30.183 
17:35	63.7	63.7	63.7	51	45.2	3	9	90	0.00	30.183 
17:40	63.2	63.2	63.2	50	44.2	4	9	90	0.00	30.183 
17:45	63.1	63.1	63.1	50	44.2	3	10	90	0.00	30.187 
17:50	62.6	62.6	62.6	51	44.2	6	11	112	0.00	30.187 
17:55	62.3	62.3	62.3	53	44.9	4	10	90	0.00	30.187 
18:00	62.1	62.1	62.1	52	44.3	4	10	112	0.00	30.186 
18:05	61.6	61.6	61.6	50	42.8	4	13	112	0.00	30.186 
18:10	61.5	61.5	61.5	52	43.7	3	10	112	0.00	30.186 
18:15	61.0	61.0	61.0	50	42.2	5	11	112	0.00	30.183 
18:20	60.7	60.7	60.7	51	42.5	4	10	90	0.00	30.183 
18:25	60.5	60.5	60.5	53	43.3	4	11	90	0.00	30.183 
18:30	60.4	60.4	60.4	52	42.7	4	9	112	0.00	30.183 
18:35	60.4	60.4	60.4	52	42.7	4	7	112	0.00	30.183 
18:40	60.4	60.4	60.4	53	43.2	4	10	112	0.00	30.183 
18:45	60.4	60.4	60.4	54	43.7	2	9	112	0.00	30.183 
18:50	60.4	60.4	60.4	54	43.7	2	6	90	0.00	30.183 
18:55	60.2	60.2	60.2	54	43.5	3	9	112	0.00	30.183 
19:00	60.1	60.1	60.1	54	43.4	3	9	112	0.00	30.185 
19:05	59.8	59.8	59.8	54	43.1	3	9	90	0.00	30.185 
19:10	59.6	59.6	59.6	55	43.4	2	7	135	0.00	30.185 
19:15	59.3	59.3	59.3	54	42.7	4	10	90	0.00	30.181 
19:20	59.2	59.2	59.2	55	43.0	4	10	112	0.00	30.181 
19:25	58.9	58.9	58.9	55	42.8	4	10	90	0.00	30.181 
19:30	58.7	58.7	58.7	55	42.6	3	9	90	0.00	30.183 
19:35	58.6	58.6	58.6	56	43.0	3	7	90	0.00	30.183 
19:40	58.4	58.4	58.4	54	41.8	4	9	68	0.00	30.183 
19:45	58.3	58.3	58.3	55	42.2	3	6	90	0.00	30.182 
19:50	58.1	58.1	58.1	56	42.5	4	7	90	0.00	30.182 
19:55	57.8	57.8	57.8	56	42.2	4	11	90	0.00	30.182 
20:00	57.6	57.6	57.6	56	42.0	3	7	90	0.00	30.182 
20:05	57.5	57.5	57.5	56	41.9	3	9	112	0.00	30.182 
20:10	57.2	57.2	57.2	56	41.6	4	7	112	0.00	30.182 
20:15	57.0	57.0	57.0	57	41.9	4	9	112	0.00	30.185 
20:20	56.7	56.7	56.7	57	41.6	3	9	90	0.00	30.185 
20:25	56.6	56.6	56.6	57	41.5	3	9	90	0.00	30.185 
20:30	56.5	56.5	56.5	57	41.5	3	9	112	0.00	30.196 
20:35	56.3	56.3	56.3	58	41.7	3	10	90	0.00	30.196 
20:40	56.2	56.2	56.2	58	41.6	2	5	90	0.00	30.196 
20:45	56.0	56.0	56.0	59	41.9	3	6	90	0.00	30.199 
20:50	55.7	55.7	55.7	59	41.6	3	5	90	0.00	30.199 
20:55	55.6	55.6	55.6	59	41.5	2	4	112	0.00	30.199 
21:00	55.4	55.4	55.4	60	41.7	2	7	90	0.00	30.200 
21:05	55.3	55.3	55.3	60	41.7	2	6	90	0.00	30.200 
21:10	55.1	55.1	55.1	60	41.5	2	7	90	0.00	30.200 
21:15	55.0	55.0	55.0	61	41.8	1	4	90	0.00	30.199 
21:20	54.7	54.7	54.7	61	41.5	3	7	90	0.00	30.199 
21:25	54.5	54.5	54.5	61	41.3	3	9	112	0.00	30.199 
21:30	54.2	54.2	54.2	61	41.0	3	5	112	0.00	30.202 
21:35	54.1	54.1	54.1	61	41.0	3	7	90	0.00	30.202 
21:40	53.9	53.9	53.9	60	40.3	2	5	90	0.00	30.202 
21:45	53.8	53.8	53.8	60	40.2	2	6	90	0.00	30.202 
21:50	53.8	53.8	53.8	61	40.7	1	4	112	0.00	30.202 
21:55	53.6	53.6	53.6	60	40.1	2	9	112	0.00	30.202 
22:00	53.5	53.5	53.5	59	39.5	2	6	90	0.00	30.202 
22:05	53.3	53.3	53.3	59	39.3	2	6	90	0.00	30.202 
22:10	53.3	53.3	53.3	60	39.8	2	5	112	0.00	30.202 
22:15	53.2	53.2	53.2	60	39.7	2	6	112	0.00	30.202 
22:20	53.2	53.2	53.2	61	40.1	1	5	90	0.00	30.202 
22:25	53.2	53.2	53.2	60	39.7	2	5	90	0.00	30.202 
22:30	53.1	53.1	53.1	60	39.6	2	5	90	0.00	30.203 
22:35	53.1	53.1	53.1	59	39.2	2	5	112	0.00	30.203 
22:40	53.1	53.1	53.1	59	39.2	2	5	90	0.00	30.203 
22:45	53.1	53.1	53.1	59	39.2	2	4	90	0.00	30.204 
22:50	53.1	53.1	53.1	59	39.2	2	5	90	0.00	30.204 
22:55	53.2	53.2	53.2	59	39.2	1	5	112	0.00	30.204 
23:00	53.1	53.1	53.1	60	39.6	2	6	112	0.00	30.204 
23:05	53.1	53.1	53.1	61	40.0	2	6	90	0.00	30.204 
23:10	52.9	52.9	52.9	61	39.8	2	6	90	0.00	30.204 
23:15	52.9	52.9	52.9	62	40.2	1	4	90	0.00	30.201 
23:20	52.8	52.8	52.8	62	40.1	2	6	112	0.00	30.201 
23:25	52.6	52.6	52.6	63	40.4	2	5	90	0.00	30.201 
23:30	52.6	52.6	52.6	63	40.4	2	4	90	0.00	30.201 
23:35	52.6	52.6	52.6	64	40.8	2	5	90	0.00	30.201 
23:40	52.5	52.5	52.5	64	40.7	2	5	90	0.00	30.201 
23:45	52.5	52.5	52.5	65	41.1	2	5	112	0.00	30.200 
23:50	52.5	52.5	52.5	64	40.7	2	4	90	0.00	30.200 
23:55	52.5	52.5	52.5	65	41.1	3	7	90	0.00	30.200 

CoCoRaHS
IN-AL-39
A2 Web Hosting
Creative Commons License
GoDaddy
search engine by freefind advanced

loaded 2018-11-13 01:50:11 • last modified 2010-11-18 10:43:29
Privacy PolicyDisclaimer
• wx.awcolley.com is powered by PmWiki v.2002016 •
• all content (unless otherwise noted) © 2018 A W Colley